sensor_id;sensor_type;location;lat;lon;timestamp;pressure;altitude;pressure_sealevel;temperature;humidity
54554;BME280;40450;55.848;-3.572;2024-02-21T00:01:15;113222.72;;;-218.88;0.00
54554;BME280;40450;55.848;-3.572;2024-02-21T00:03:31;113222.72;;;-218.64;0.00
54554;BME280;40450;55.848;-3.572;2024-02-21T00:06:04;113222.72;;;-218.88;0.00
54554;BME280;40450;55.848;-3.572;2024-02-21T00:08:31;113222.72;;;-218.88;0.00
54554;BME280;40450;55.848;-3.572;2024-02-21T00:10:52;113222.72;;;-218.88;0.00
54554;BME280;40450;55.848;-3.572;2024-02-21T00:13:12;113222.72;;;-219.12;0.00
54554;BME280;40450;55.848;-3.572;2024-02-21T00:15:45;113222.72;;;-218.88;0.00
54554;BME280;40450;55.848;-3.572;2024-02-21T00:18:10;113222.72;;;-219.60;0.00
54554;BME280;40450;55.848;-3.572;2024-02-21T00:20:28;113222.72;;;-218.88;0.00
54554;BME280;40450;55.848;-3.572;2024-02-21T00:22:54;113222.72;;;-218.88;0.00
54554;BME280;40450;55.848;-3.572;2024-02-21T00:25:24;113222.72;;;-218.40;0.00
54554;BME280;40450;55.848;-3.572;2024-02-21T00:27:49;113222.72;;;-218.88;0.00
54554;BME280;40450;55.848;-3.572;2024-02-21T00:30:11;113222.72;;;-218.40;0.00
54554;BME280;40450;55.848;-3.572;2024-02-21T00:32:36;113222.72;;;-218.40;0.00
54554;BME280;40450;55.848;-3.572;2024-02-21T00:35:07;113222.72;;;-218.40;0.00
54554;BME280;40450;55.848;-3.572;2024-02-21T00:38:06;113222.72;;;-218.64;0.00
54554;BME280;40450;55.848;-3.572;2024-02-21T00:39:56;113222.72;;;-218.88;0.00
54554;BME280;40450;55.848;-3.572;2024-02-21T00:42:22;113222.72;;;-218.88;0.00
54554;BME280;40450;55.848;-3.572;2024-02-21T00:44:51;113222.72;;;-218.64;0.00
54554;BME280;40450;55.848;-3.572;2024-02-21T00:47:09;113222.72;;;-218.40;0.00
54554;BME280;40450;55.848;-3.572;2024-02-21T00:49:39;113222.72;;;-218.16;0.00
54554;BME280;40450;55.848;-3.572;2024-02-21T00:51:59;113222.72;;;-218.16;0.00
54554;BME280;40450;55.848;-3.572;2024-02-21T00:54:30;113222.72;;;-218.40;0.00
54554;BME280;40450;55.848;-3.572;2024-02-21T00:56:55;113222.72;;;-218.64;0.00
54554;BME280;40450;55.848;-3.572;2024-02-21T00:59:20;113222.72;;;-218.40;0.00
54554;BME280;40450;55.848;-3.572;2024-02-21T01:01:45;113222.72;;;-217.92;0.00
54554;BME280;40450;55.848;-3.572;2024-02-21T01:04:11;113222.72;;;-218.40;0.00
54554;BME280;40450;55.848;-3.572;2024-02-21T01:06:36;113222.72;;;-218.16;0.00
54554;BME280;40450;55.848;-3.572;2024-02-21T01:09:01;113222.72;;;-218.16;0.00
54554;BME280;40450;55.848;-3.572;2024-02-21T01:11:27;113222.72;;;-218.16;0.00
54554;BME280;40450;55.848;-3.572;2024-02-21T01:13:52;113222.72;;;-217.68;0.00
54554;BME280;40450;55.848;-3.572;2024-02-21T01:18:42;113222.72;;;-217.92;0.00
54554;BME280;40450;55.848;-3.572;2024-02-21T01:21:11;113222.72;;;-217.44;0.00
54554;BME280;40450;55.848;-3.572;2024-02-21T01:23:33;113222.72;;;-217.92;0.00
54554;BME280;40450;55.848;-3.572;2024-02-21T01:25:54;113222.72;;;-217.92;0.00
54554;BME280;40450;55.848;-3.572;2024-02-21T01:28:24;113222.72;;;-217.44;0.00
54554;BME280;40450;55.848;-3.572;2024-02-21T01:30:48;113222.72;;;-217.44;0.00
54554;BME280;40450;55.848;-3.572;2024-02-21T01:33:09;113222.72;;;-217.44;0.00
54554;BME280;40450;55.848;-3.572;2024-02-21T01:35:34;113222.72;;;-217.44;0.00
54554;BME280;40450;55.848;-3.572;2024-02-21T01:37:59;113222.72;;;-218.40;0.00
54554;BME280;40450;55.848;-3.572;2024-02-21T01:40:25;113222.72;;;-218.40;0.00
54554;BME280;40450;55.848;-3.572;2024-02-21T01:42:50;113222.72;;;-218.40;0.00
54554;BME280;40450;55.848;-3.572;2024-02-21T01:45:18;113222.72;;;-218.40;0.00
54554;BME280;40450;55.848;-3.572;2024-02-21T01:47:40;113222.72;;;-218.16;0.00
54554;BME280;40450;55.848;-3.572;2024-02-21T01:50:15;113222.72;;;-217.92;0.00
54554;BME280;40450;55.848;-3.572;2024-02-21T01:54:57;113222.72;;;-218.40;0.00
54554;BME280;40450;55.848;-3.572;2024-02-21T01:57:23;113222.72;;;-218.40;0.00
54554;BME280;40450;55.848;-3.572;2024-02-21T01:59:53;113222.72;;;-218.40;0.00
54554;BME280;40450;55.848;-3.572;2024-02-21T02:02:23;113222.72;;;-218.40;0.00
54554;BME280;40450;55.848;-3.572;2024-02-21T02:04:39;113222.72;;;-217.68;0.00
54554;BME280;40450;55.848;-3.572;2024-02-21T02:07:06;113222.72;;;-217.68;0.00
54554;BME280;40450;55.848;-3.572;2024-02-21T02:09:31;113222.72;;;-218.64;0.00
54554;BME280;40450;55.848;-3.572;2024-02-21T02:12:02;113222.72;;;-218.88;0.00
54554;BME280;40450;55.848;-3.572;2024-02-21T02:14:21;113222.72;;;-219.36;0.00
54554;BME280;40450;55.848;-3.572;2024-02-21T02:16:54;113222.72;;;-219.60;0.00
54554;BME280;40450;55.848;-3.572;2024-02-21T02:19:11;113222.72;;;-219.36;0.00
54554;BME280;40450;55.848;-3.572;2024-02-21T02:21:39;113222.72;;;-219.36;0.00
54554;BME280;40450;55.848;-3.572;2024-02-21T02:24:02;113222.72;;;-219.36;0.00
54554;BME280;40450;55.848;-3.572;2024-02-21T02:26:27;113222.72;;;-219.12;0.00
54554;BME280;40450;55.848;-3.572;2024-02-21T02:28:52;113222.72;;;-218.40;0.00
54554;BME280;40450;55.848;-3.572;2024-02-21T02:31:18;113222.72;;;-218.40;0.00
54554;BME280;40450;55.848;-3.572;2024-02-21T02:33:43;113222.72;;;-219.60;0.00
54554;BME280;40450;55.848;-3.572;2024-02-21T02:36:08;113222.72;;;-219.12;0.00
54554;BME280;40450;55.848;-3.572;2024-02-21T02:38:39;113222.72;;;-218.88;0.00
54554;BME280;40450;55.848;-3.572;2024-02-21T02:41:05;113222.72;;;-218.88;0.00
54554;BME280;40450;55.848;-3.572;2024-02-21T02:43:30;113222.72;;;-218.40;0.00
54554;BME280;40450;55.848;-3.572;2024-02-21T02:45:56;113222.72;;;-217.92;0.00
54554;BME280;40450;55.848;-3.572;2024-02-21T02:48:15;113222.72;;;-218.16;0.00
54554;BME280;40450;55.848;-3.572;2024-02-21T02:50:40;113222.72;;;-217.92;0.00
54554;BME280;40450;55.848;-3.572;2024-02-21T02:53:05;113222.72;;;-217.92;0.00
54554;BME280;40450;55.848;-3.572;2024-02-21T02:55:31;113222.72;;;-217.92;0.00
54554;BME280;40450;55.848;-3.572;2024-02-21T02:57:57;113222.72;;;-218.40;0.00
54554;BME280;40450;55.848;-3.572;2024-02-21T03:00:22;113222.72;;;-217.92;0.00
54554;BME280;40450;55.848;-3.572;2024-02-21T03:02:49;113222.72;;;-217.92;0.00
54554;BME280;40450;55.848;-3.572;2024-02-21T03:05:21;113222.72;;;-217.92;0.00
54554;BME280;40450;55.848;-3.572;2024-02-21T03:07:37;113222.72;;;-218.40;0.00
54554;BME280;40450;55.848;-3.572;2024-02-21T03:10:06;113222.72;;;-218.40;0.00
54554;BME280;40450;55.848;-3.572;2024-02-21T03:12:28;113222.72;;;-218.40;0.00
54554;BME280;40450;55.848;-3.572;2024-02-21T03:14:53;113222.72;;;-217.92;0.00
54554;BME280;40450;55.848;-3.572;2024-02-21T03:17:18;113222.72;;;-218.40;0.00
54554;BME280;40450;55.848;-3.572;2024-02-21T03:19:49;113222.72;;;-218.40;0.00
54554;BME280;40450;55.848;-3.572;2024-02-21T03:22:14;113222.72;;;-218.40;0.00
54554;BME280;40450;55.848;-3.572;2024-02-21T03:24:40;113222.72;;;-218.88;0.00
54554;BME280;40450;55.848;-3.572;2024-02-21T03:27:06;113222.72;;;-218.88;0.00
54554;BME280;40450;55.848;-3.572;2024-02-21T03:29:26;113222.72;;;-220.07;0.00
54554;BME280;40450;55.848;-3.572;2024-02-21T03:31:51;113222.72;;;-218.88;0.00
54554;BME280;40450;55.848;-3.572;2024-02-21T03:34:17;113222.72;;;-218.88;0.00
54554;BME280;40450;55.848;-3.572;2024-02-21T03:36:43;113222.72;;;-218.64;0.00
54554;BME280;40450;55.848;-3.572;2024-02-21T03:39:08;113222.72;;;-218.88;0.00
54554;BME280;40450;55.848;-3.572;2024-02-21T03:41:33;113222.72;;;-218.88;0.00
54554;BME280;40450;55.848;-3.572;2024-02-21T03:43:59;113222.72;;;-218.88;0.00
54554;BME280;40450;55.848;-3.572;2024-02-21T03:46:27;113222.72;;;-218.88;0.00
54554;BME280;40450;55.848;-3.572;2024-02-21T03:48:49;113222.72;;;-219.12;0.00
54554;BME280;40450;55.848;-3.572;2024-02-21T03:51:15;113222.72;;;-218.88;0.00
54554;BME280;40450;55.848;-3.572;2024-02-21T03:53:40;113222.72;;;-218.64;0.00
54554;BME280;40450;55.848;-3.572;2024-02-21T03:56:05;113222.72;;;-218.64;0.00
54554;BME280;40450;55.848;-3.572;2024-02-21T03:58:34;113222.72;;;-218.40;0.00
54554;BME280;40450;55.848;-3.572;2024-02-21T04:00:56;113222.72;;;-218.64;0.00
54554;BME280;40450;55.848;-3.572;2024-02-21T04:03:21;113222.72;;;-218.40;0.00
54554;BME280;40450;55.848;-3.572;2024-02-21T04:05:46;113222.72;;;-218.40;0.00
54554;BME280;40450;55.848;-3.572;2024-02-21T04:08:11;113222.72;;;-218.40;0.00
54554;BME280;40450;55.848;-3.572;2024-02-21T04:10:37;113222.72;;;-218.40;0.00
54554;BME280;40450;55.848;-3.572;2024-02-21T04:13:07;113222.72;;;-218.64;0.00
54554;BME280;40450;55.848;-3.572;2024-02-21T04:15:27;113222.72;;;-219.12;0.00
54554;BME280;40450;55.848;-3.572;2024-02-21T04:17:52;113222.72;;;-219.36;0.00
54554;BME280;40450;55.848;-3.572;2024-02-21T04:20:18;113222.72;;;-219.36;0.00
54554;BME280;40450;55.848;-3.572;2024-02-21T04:22:44;113222.72;;;-219.12;0.00
54554;BME280;40450;55.848;-3.572;2024-02-21T04:25:08;113222.72;;;-219.84;0.00
54554;BME280;40450;55.848;-3.572;2024-02-21T04:27:33;113222.72;;;-219.84;0.00
54554;BME280;40450;55.848;-3.572;2024-02-21T04:30:00;113222.72;;;-220.31;0.00
54554;BME280;40450;55.848;-3.572;2024-02-21T04:32:30;113222.72;;;-219.84;0.00
54554;BME280;40450;55.848;-3.572;2024-02-21T04:34:56;113222.72;;;-219.36;0.00
54554;BME280;40450;55.848;-3.572;2024-02-21T04:37:20;113222.72;;;-218.64;0.00
54554;BME280;40450;55.848;-3.572;2024-02-21T04:39:45;113222.72;;;-219.12;0.00
54554;BME280;40450;55.848;-3.572;2024-02-21T04:42:05;113222.72;;;-218.88;0.00
54554;BME280;40450;55.848;-3.572;2024-02-21T04:44:30;113222.72;;;-219.36;0.00
54554;BME280;40450;55.848;-3.572;2024-02-21T04:46:55;113222.72;;;-218.64;0.00
54554;BME280;40450;55.848;-3.572;2024-02-21T04:49:20;113222.72;;;-218.40;0.00
54554;BME280;40450;55.848;-3.572;2024-02-21T04:51:46;113222.72;;;-218.40;0.00
54554;BME280;40450;55.848;-3.572;2024-02-21T04:54:11;113222.72;;;-218.40;0.00
54554;BME280;40450;55.848;-3.572;2024-02-21T04:56:44;113222.72;;;-218.64;0.00
54554;BME280;40450;55.848;-3.572;2024-02-21T04:59:01;113222.72;;;-218.64;0.00
54554;BME280;40450;55.848;-3.572;2024-02-21T05:01:35;113222.72;;;-218.64;0.00
54554;BME280;40450;55.848;-3.572;2024-02-21T05:03:52;113222.72;;;-218.64;0.00
54554;BME280;40450;55.848;-3.572;2024-02-21T05:06:18;113222.72;;;-218.40;0.00
54554;BME280;40450;55.848;-3.572;2024-02-21T05:08:48;113222.72;;;-219.12;0.00
54554;BME280;40450;55.848;-3.572;2024-02-21T05:11:13;113222.72;;;-219.36;0.00
54554;BME280;40450;55.848;-3.572;2024-02-21T05:13:41;113222.72;;;-219.12;0.00
54554;BME280;40450;55.848;-3.572;2024-02-21T05:16:12;113222.72;;;-219.36;0.00
54554;BME280;40450;55.848;-3.572;2024-02-21T05:18:28;113222.72;;;-219.36;0.00
54554;BME280;40450;55.848;-3.572;2024-02-21T05:20:54;113222.72;;;-219.60;0.00
54554;BME280;40450;55.848;-3.572;2024-02-21T05:23:22;113222.72;;;-219.84;0.00
54554;BME280;40450;55.848;-3.572;2024-02-21T05:25:44;113222.72;;;-219.84;0.00
54554;BME280;40450;55.848;-3.572;2024-02-21T05:28:09;113222.72;;;-219.84;0.00
54554;BME280;40450;55.848;-3.572;2024-02-21T05:30:29;113222.72;;;-220.31;0.00
54554;BME280;40450;55.848;-3.572;2024-02-21T05:33:04;113222.72;;;-220.31;0.00
54554;BME280;40450;55.848;-3.572;2024-02-21T05:35:28;113222.72;;;-220.79;0.00
54554;BME280;40450;55.848;-3.572;2024-02-21T05:37:53;113222.72;;;-221.27;0.00
54554;BME280;40450;55.848;-3.572;2024-02-21T05:40:15;113222.72;;;-220.79;0.00
54554;BME280;40450;55.848;-3.572;2024-02-21T05:42:35;113222.72;;;-219.84;0.00
54554;BME280;40450;55.848;-3.572;2024-02-21T05:45:00;113222.72;;;-219.36;0.00
54554;BME280;40450;55.848;-3.572;2024-02-21T05:47:34;113222.72;;;-219.12;0.00
54554;BME280;40450;55.848;-3.572;2024-02-21T05:49:51;113222.72;;;-219.36;0.00
54554;BME280;40450;55.848;-3.572;2024-02-21T05:52:17;113222.72;;;-218.88;0.00
54554;BME280;40450;55.848;-3.572;2024-02-21T05:54:47;113222.72;;;-219.36;0.00
54554;BME280;40450;55.848;-3.572;2024-02-21T05:57:07;113222.72;;;-219.36;0.00
54554;BME280;40450;55.848;-3.572;2024-02-21T05:59:32;113222.72;;;-219.36;0.00
54554;BME280;40450;55.848;-3.572;2024-02-21T06:01:57;113222.72;;;-219.36;0.00
54554;BME280;40450;55.848;-3.572;2024-02-21T06:04:22;113222.72;;;-219.36;0.00
54554;BME280;40450;55.848;-3.572;2024-02-21T06:06:47;113222.72;;;-219.36;0.00
54554;BME280;40450;55.848;-3.572;2024-02-21T06:09:12;113222.72;;;-219.36;0.00
54554;BME280;40450;55.848;-3.572;2024-02-21T06:11:38;113222.72;;;-219.84;0.00
54554;BME280;40450;55.848;-3.572;2024-02-21T06:14:03;113222.72;;;-220.31;0.00
54554;BME280;40450;55.848;-3.572;2024-02-21T06:16:28;113222.72;;;-220.31;0.00
54554;BME280;40450;55.848;-3.572;2024-02-21T06:18:53;113222.72;;;-220.31;0.00
54554;BME280;40450;55.848;-3.572;2024-02-21T06:21:19;113222.72;;;-220.31;0.00
54554;BME280;40450;55.848;-3.572;2024-02-21T06:23:44;113222.72;;;-219.84;0.00
54554;BME280;40450;55.848;-3.572;2024-02-21T06:26:09;113222.72;;;-219.84;0.00
54554;BME280;40450;55.848;-3.572;2024-02-21T06:28:38;113222.72;;;-219.84;0.00
54554;BME280;40450;55.848;-3.572;2024-02-21T06:31:01;113222.72;;;-220.07;0.00
54554;BME280;40450;55.848;-3.572;2024-02-21T06:33:30;113222.72;;;-219.84;0.00
54554;BME280;40450;55.848;-3.572;2024-02-21T06:38:15;113222.72;;;-219.84;0.00
54554;BME280;40450;55.848;-3.572;2024-02-21T06:43:06;113222.72;;;-219.84;0.00
54554;BME280;40450;55.848;-3.572;2024-02-21T06:45:32;113222.72;;;-219.60;0.00
54554;BME280;40450;55.848;-3.572;2024-02-21T06:47:57;113222.72;;;-220.31;0.00
54554;BME280;40450;55.848;-3.572;2024-02-21T06:50:22;113222.72;;;-220.79;0.00
54554;BME280;40450;55.848;-3.572;2024-02-21T06:52:48;113222.72;;;-221.03;0.00
54554;BME280;40450;55.848;-3.572;2024-02-21T06:55:13;113222.72;;;-221.03;0.00
54554;BME280;40450;55.848;-3.572;2024-02-21T06:57:38;113222.72;;;-220.55;0.00
54554;BME280;40450;55.848;-3.572;2024-02-21T07:00:06;113222.72;;;-220.79;0.00
54554;BME280;40450;55.848;-3.572;2024-02-21T07:02:29;113222.72;;;-220.79;0.00
54554;BME280;40450;55.848;-3.572;2024-02-21T07:04:57;113222.72;;;-221.27;0.00
54554;BME280;40450;55.848;-3.572;2024-02-21T07:07:19;113222.72;;;-220.55;0.00
54554;BME280;40450;55.848;-3.572;2024-02-21T07:09:45;113222.72;;;-221.27;0.00
54554;BME280;40450;55.848;-3.572;2024-02-21T07:12:11;113222.72;;;-221.75;0.00
54554;BME280;40450;55.848;-3.572;2024-02-21T07:14:36;113222.72;;;-222.23;0.00
54554;BME280;40450;55.848;-3.572;2024-02-21T07:17:00;113222.72;;;-222.23;0.00
54554;BME280;40450;55.848;-3.572;2024-02-21T07:19:26;113222.72;;;-222.23;0.00
54554;BME280;40450;55.848;-3.572;2024-02-21T07:21:50;113222.72;;;-221.99;0.00
54554;BME280;40450;55.848;-3.572;2024-02-21T07:24:16;113222.72;;;-221.75;0.00
54554;BME280;40450;55.848;-3.572;2024-02-21T07:26:42;113222.72;;;-221.51;0.00
54554;BME280;40450;55.848;-3.572;2024-02-21T07:29:06;113222.72;;;-220.55;0.00
54554;BME280;40450;55.848;-3.572;2024-02-21T07:31:31;113222.72;;;-220.79;0.00
54554;BME280;40450;55.848;-3.572;2024-02-21T07:33:56;113222.72;;;-220.79;0.00
54554;BME280;40450;55.848;-3.572;2024-02-21T07:36:29;113222.72;;;-220.79;0.00
54554;BME280;40450;55.848;-3.572;2024-02-21T07:38:47;113222.72;;;-220.79;0.00
54554;BME280;40450;55.848;-3.572;2024-02-21T07:41:13;113222.72;;;-220.79;0.00
54554;BME280;40450;55.848;-3.572;2024-02-21T07:43:37;113222.72;;;-220.55;0.00
54554;BME280;40450;55.848;-3.572;2024-02-21T07:46:02;113222.72;;;-220.55;0.00
54554;BME280;40450;55.848;-3.572;2024-02-21T07:48:31;113222.72;;;-221.51;0.00
54554;BME280;40450;55.848;-3.572;2024-02-21T07:50:53;113222.72;;;-221.27;0.00
54554;BME280;40450;55.848;-3.572;2024-02-21T07:53:19;113222.72;;;-220.79;0.00
54554;BME280;40450;55.848;-3.572;2024-02-21T07:55:52;113222.72;;;-221.27;0.00
54554;BME280;40450;55.848;-3.572;2024-02-21T07:58:14;113222.72;;;-220.31;0.00
54554;BME280;40450;55.848;-3.572;2024-02-21T08:00:34;113222.72;;;-220.55;0.00
54554;BME280;40450;55.848;-3.572;2024-02-21T08:02:59;113222.72;;;-219.60;0.00
54554;BME280;40450;55.848;-3.572;2024-02-21T08:05:24;113222.72;;;-219.36;0.00
54554;BME280;40450;55.848;-3.572;2024-02-21T08:07:49;113222.72;;;-219.36;0.00
54554;BME280;40450;55.848;-3.572;2024-02-21T08:10:15;113222.72;;;-219.60;0.00
54554;BME280;40450;55.848;-3.572;2024-02-21T08:12:39;113222.72;;;-219.60;0.00
54554;BME280;40450;55.848;-3.572;2024-02-21T08:15:05;113222.72;;;-219.84;0.00
54554;BME280;40450;55.848;-3.572;2024-02-21T08:17:30;113222.72;;;-219.36;0.00
54554;BME280;40450;55.848;-3.572;2024-02-21T08:19:55;113222.72;;;-219.84;0.00
54554;BME280;40450;55.848;-3.572;2024-02-21T08:22:20;113222.72;;;-220.07;0.00
54554;BME280;40450;55.848;-3.572;2024-02-21T08:24:45;113222.72;;;-219.60;0.00
54554;BME280;40450;55.848;-3.572;2024-02-21T08:27:10;113222.72;;;-219.84;0.00
54554;BME280;40450;55.848;-3.572;2024-02-21T08:29:36;113222.72;;;-219.36;0.00
54554;BME280;40450;55.848;-3.572;2024-02-21T08:32:01;113222.72;;;-219.36;0.00
54554;BME280;40450;55.848;-3.572;2024-02-21T08:34:31;113222.72;;;-219.36;0.00
54554;BME280;40450;55.848;-3.572;2024-02-21T08:36:56;113222.72;;;-219.36;0.00
54554;BME280;40450;55.848;-3.572;2024-02-21T08:39:17;113222.72;;;-219.36;0.00
54554;BME280;40450;55.848;-3.572;2024-02-21T08:41:42;113222.72;;;-219.36;0.00
54554;BME280;40450;55.848;-3.572;2024-02-21T08:44:07;113222.72;;;-219.60;0.00
54554;BME280;40450;55.848;-3.572;2024-02-21T08:46:32;113222.72;;;-219.36;0.00
54554;BME280;40450;55.848;-3.572;2024-02-21T08:48:57;113222.72;;;-219.36;0.00
54554;BME280;40450;55.848;-3.572;2024-02-21T08:51:22;113222.72;;;-219.60;0.00
54554;BME280;40450;55.848;-3.572;2024-02-21T08:53:48;113222.72;;;-219.36;0.00
54554;BME280;40450;55.848;-3.572;2024-02-21T08:56:13;113222.72;;;-219.84;0.00
54554;BME280;40450;55.848;-3.572;2024-02-21T08:58:39;113222.72;;;-219.84;0.00
54554;BME280;40450;55.848;-3.572;2024-02-21T09:01:04;113222.72;;;-219.60;0.00
54554;BME280;40450;55.848;-3.572;2024-02-21T09:03:28;113222.72;;;-219.60;0.00
54554;BME280;40450;55.848;-3.572;2024-02-21T09:05:54;113222.72;;;-220.31;0.00
54554;BME280;40450;55.848;-3.572;2024-02-21T09:08:20;113222.72;;;-219.12;0.00
54554;BME280;40450;55.848;-3.572;2024-02-21T09:10:44;113222.72;;;-219.84;0.00
54554;BME280;40450;55.848;-3.572;2024-02-21T09:13:15;113222.72;;;-219.60;0.00
54554;BME280;40450;55.848;-3.572;2024-02-21T09:15:34;113222.72;;;-219.36;0.00
54554;BME280;40450;55.848;-3.572;2024-02-21T09:17:59;113222.72;;;-219.36;0.00
54554;BME280;40450;55.848;-3.572;2024-02-21T09:20:24;113222.72;;;-219.36;0.00
54554;BME280;40450;55.848;-3.572;2024-02-21T09:22:49;113222.72;;;-219.36;0.00
54554;BME280;40450;55.848;-3.572;2024-02-21T09:25:15;113222.72;;;-219.36;0.00
54554;BME280;40450;55.848;-3.572;2024-02-21T09:27:40;113222.72;;;-219.36;0.00
54554;BME280;40450;55.848;-3.572;2024-02-21T09:30:07;113222.72;;;-218.88;0.00
54554;BME280;40450;55.848;-3.572;2024-02-21T09:32:30;113222.72;;;-219.60;0.00
54554;BME280;40450;55.848;-3.572;2024-02-21T09:34:56;113222.72;;;-219.60;0.00
54554;BME280;40450;55.848;-3.572;2024-02-21T09:37:21;113222.72;;;-218.88;0.00
54554;BME280;40450;55.848;-3.572;2024-02-21T09:39:45;113222.72;;;-218.88;0.00
54554;BME280;40450;55.848;-3.572;2024-02-21T09:42:11;113222.72;;;-219.12;0.00
54554;BME280;40450;55.848;-3.572;2024-02-21T09:44:37;113222.72;;;-219.12;0.00
54554;BME280;40450;55.848;-3.572;2024-02-21T09:47:03;113222.72;;;-219.36;0.00
54554;BME280;40450;55.848;-3.572;2024-02-21T09:49:31;113222.72;;;-219.36;0.00
54554;BME280;40450;55.848;-3.572;2024-02-21T09:51:54;113222.72;;;-219.84;0.00
54554;BME280;40450;55.848;-3.572;2024-02-21T09:54:17;113222.72;;;-219.60;0.00
54554;BME280;40450;55.848;-3.572;2024-02-21T09:56:42;113222.72;;;-219.60;0.00
54554;BME280;40450;55.848;-3.572;2024-02-21T09:59:07;113222.72;;;-218.88;0.00
54554;BME280;40450;55.848;-3.572;2024-02-21T10:01:33;113222.72;;;-219.36;0.00
54554;BME280;40450;55.848;-3.572;2024-02-21T10:03:57;113222.72;;;-218.88;0.00
54554;BME280;40450;55.848;-3.572;2024-02-21T10:06:22;113222.72;;;-219.84;0.00
54554;BME280;40450;55.848;-3.572;2024-02-21T10:08:52;113222.72;;;-219.60;0.00
54554;BME280;40450;55.848;-3.572;2024-02-21T10:11:22;113222.72;;;-219.36;0.00
54554;BME280;40450;55.848;-3.572;2024-02-21T10:13:38;113222.72;;;-218.88;0.00
54554;BME280;40450;55.848;-3.572;2024-02-21T10:16:06;113222.72;;;-219.36;0.00
54554;BME280;40450;55.848;-3.572;2024-02-21T10:18:28;113222.72;;;-219.36;0.00
54554;BME280;40450;55.848;-3.572;2024-02-21T10:21:00;113222.72;;;-218.88;0.00
54554;BME280;40450;55.848;-3.572;2024-02-21T10:23:18;113222.72;;;-218.64;0.00
54554;BME280;40450;55.848;-3.572;2024-02-21T10:25:44;113222.72;;;-219.36;0.00
54554;BME280;40450;55.848;-3.572;2024-02-21T10:28:12;113222.72;;;-219.36;0.00
54554;BME280;40450;55.848;-3.572;2024-02-21T10:30:34;113222.72;;;-218.88;0.00
54554;BME280;40450;55.848;-3.572;2024-02-21T10:32:59;113222.72;;;-218.88;0.00
54554;BME280;40450;55.848;-3.572;2024-02-21T10:35:26;113222.72;;;-219.36;0.00
54554;BME280;40450;55.848;-3.572;2024-02-21T10:37:49;113222.72;;;-218.88;0.00
54554;BME280;40450;55.848;-3.572;2024-02-21T10:40:15;113222.72;;;-218.88;0.00
54554;BME280;40450;55.848;-3.572;2024-02-21T10:42:40;113222.72;;;-218.88;0.00
54554;BME280;40450;55.848;-3.572;2024-02-21T10:45:07;113222.72;;;-218.64;0.00
54554;BME280;40450;55.848;-3.572;2024-02-21T10:47:32;113222.72;;;-218.88;0.00
54554;BME280;40450;55.848;-3.572;2024-02-21T10:50:03;113222.72;;;-218.64;0.00
54554;BME280;40450;55.848;-3.572;2024-02-21T10:52:36;113222.72;;;-218.88;0.00
54554;BME280;40450;55.848;-3.572;2024-02-21T10:54:50;113222.72;;;-219.12;0.00
54554;BME280;40450;55.848;-3.572;2024-02-21T10:57:13;113222.72;;;-219.12;0.00
54554;BME280;40450;55.848;-3.572;2024-02-21T10:59:37;113222.72;;;-219.36;0.00
54554;BME280;40450;55.848;-3.572;2024-02-21T11:02:01;113222.72;;;-218.88;0.00
54554;BME280;40450;55.848;-3.572;2024-02-21T11:04:26;113222.72;;;-219.12;0.00
54554;BME280;40450;55.848;-3.572;2024-02-21T11:06:52;113222.72;;;-219.36;0.00
54554;BME280;40450;55.848;-3.572;2024-02-21T11:09:17;113222.72;;;-219.36;0.00
54554;BME280;40450;55.848;-3.572;2024-02-21T11:11:44;113222.72;;;-219.12;0.00
54554;BME280;40450;55.848;-3.572;2024-02-21T11:14:08;113222.72;;;-219.36;0.00
54554;BME280;40450;55.848;-3.572;2024-02-21T11:16:37;113222.72;;;-219.60;0.00
54554;BME280;40450;55.848;-3.572;2024-02-21T11:19:06;113222.72;;;-219.36;0.00
54554;BME280;40450;55.848;-3.572;2024-02-21T11:23:54;113222.72;;;-218.64;0.00
54554;BME280;40450;55.848;-3.572;2024-02-21T11:26:19;113222.72;;;-219.12;0.00
54554;BME280;40450;55.848;-3.572;2024-02-21T11:28:38;113222.72;;;-219.36;0.00
54554;BME280;40450;55.848;-3.572;2024-02-21T11:31:10;113222.72;;;-219.36;0.00
54554;BME280;40450;55.848;-3.572;2024-02-21T11:33:28;113222.72;;;-218.88;0.00
54554;BME280;40450;55.848;-3.572;2024-02-21T11:35:55;113222.72;;;-218.88;0.00
54554;BME280;40450;55.848;-3.572;2024-02-21T11:38:19;113222.72;;;-219.36;0.00
54554;BME280;40450;55.848;-3.572;2024-02-21T11:40:46;113222.72;;;-219.36;0.00
54554;BME280;40450;55.848;-3.572;2024-02-21T11:43:09;113222.72;;;-219.36;0.00
54554;BME280;40450;55.848;-3.572;2024-02-21T11:45:34;113222.72;;;-219.36;0.00
54554;BME280;40450;55.848;-3.572;2024-02-21T11:48:00;113222.72;;;-219.36;0.00
54554;BME280;40450;55.848;-3.572;2024-02-21T11:50:26;113222.72;;;-219.36;0.00
54554;BME280;40450;55.848;-3.572;2024-02-21T11:52:50;113222.72;;;-219.36;0.00
54554;BME280;40450;55.848;-3.572;2024-02-21T11:55:15;113222.72;;;-219.12;0.00
54554;BME280;40450;55.848;-3.572;2024-02-21T11:57:40;113222.72;;;-218.88;0.00
54554;BME280;40450;55.848;-3.572;2024-02-21T12:00:13;113222.72;;;-218.88;0.00
54554;BME280;40450;55.848;-3.572;2024-02-21T12:02:30;113222.72;;;-218.88;0.00
54554;BME280;40450;55.848;-3.572;2024-02-21T12:04:56;113222.72;;;-218.64;0.00
54554;BME280;40450;55.848;-3.572;2024-02-21T12:07:21;113222.72;;;-219.12;0.00
54554;BME280;40450;55.848;-3.572;2024-02-21T12:09:46;113222.72;;;-218.88;0.00
54554;BME280;40450;55.848;-3.572;2024-02-21T12:12:11;113222.72;;;-218.88;0.00
54554;BME280;40450;55.848;-3.572;2024-02-21T12:17:02;113222.72;;;-219.36;0.00
54554;BME280;40450;55.848;-3.572;2024-02-21T12:19:28;113222.72;;;-218.88;0.00
54554;BME280;40450;55.848;-3.572;2024-02-21T12:21:54;113222.72;;;-219.36;0.00
54554;BME280;40450;55.848;-3.572;2024-02-21T12:24:21;113222.72;;;-219.36;0.00
54554;BME280;40450;55.848;-3.572;2024-02-21T12:26:42;113222.72;;;-219.12;0.00
54554;BME280;40450;55.848;-3.572;2024-02-21T12:29:08;113222.72;;;-218.88;0.00
54554;BME280;40450;55.848;-3.572;2024-02-21T12:31:54;113222.72;;;-219.36;0.00
54554;BME280;40450;55.848;-3.572;2024-02-21T12:33:59;113222.72;;;-219.36;0.00